Time;durP1;ratioP1;P1;durP2;ratioP2;P2;SDS_P1;SDS_P2;PMS_P1;PMS_P2;Temp;Humidity;BMP_temperature;BMP_pressure;BME280_temperature;BME280_humidity;BME280_pressure;Samples;Min_cycle;Max_cycle;Signal;HPM_P1;HPM_P2
2023/05/19 00:00:56;;;;;;;17.27;15.57;;;;;;;12.79;59.65;101246.16;4953661;28;101324;-78
2023/05/19 00:03:23;;;;;;;16.40;15.10;;;;;;;12.90;59.20;101252.00;4940540;28;96996;-81
2023/05/19 00:05:52;;;;;;;17.13;15.63;;;;;;;12.93;58.65;101229.97;4950914;28;97204;-77
2023/05/19 00:08:18;;;;;;;18.02;16.30;;;;;;;13.05;58.68;101241.91;4968816;28;101559;-77
2023/05/19 00:10:44;;;;;;;17.20;15.55;;;;;;;13.01;59.33;101248.19;4953356;28;101901;-78
2023/05/19 00:13:10;;;;;;;16.48;15.13;;;;;;;13.04;59.18;101241.06;4954152;28;97176;-79
2023/05/19 00:15:35;;;;;;;16.98;15.23;;;;;;;12.98;59.46;101256.19;4937078;28;96851;-77
2023/05/19 00:18:01;;;;;;;17.13;15.40;;;;;;;12.94;59.45;101249.28;4948524;28;100543;-78
2023/05/19 00:20:27;;;;;;;17.40;16.05;;;;;;;13.00;59.23;101249.09;4948263;28;101846;-75
2023/05/19 00:22:52;;;;;;;19.08;15.27;;;;;;;13.01;59.27;101250.84;4954092;28;97214;-75
2023/05/19 00:25:18;;;;;;;17.92;16.40;;;;;;;12.71;59.57;101220.94;4940506;28;96929;-75
2023/05/19 00:27:43;;;;;;;17.65;16.15;;;;;;;12.86;59.32;101249.50;4936819;28;101224;-75
2023/05/19 00:30:09;;;;;;;17.48;15.70;;;;;;;12.89;59.15;101249.41;4950290;28;101074;-76
2023/05/19 00:32:35;;;;;;;18.75;17.23;;;;;;;12.71;59.92;101247.28;4936602;28;97073;-75
2023/05/19 00:35:00;;;;;;;17.88;16.45;;;;;;;12.76;60.13;101253.31;4938191;28;96936;-75
2023/05/19 00:37:26;;;;;;;18.02;16.52;;;;;;;12.59;60.27;101251.13;4936386;28;101886;-76
2023/05/19 00:39:52;;;;;;;17.27;15.77;;;;;;;12.40;60.73;101246.38;4957142;28;101378;-75
2023/05/19 00:42:17;;;;;;;18.17;16.52;;;;;;;12.41;60.87;101247.22;4950756;28;97017;-75
2023/05/19 00:44:43;;;;;;;18.48;16.73;;;;;;;12.40;60.76;101248.16;4936297;28;97531;-76
2023/05/19 00:47:08;;;;;;;18.77;17.08;;;;;;;12.46;60.76;101246.22;4949371;28;101768;-75
2023/05/19 00:49:34;;;;;;;17.33;15.80;;;;;;;12.60;60.72;101248.47;4932448;28;101082;-77
2023/05/19 00:52:00;;;;;;;16.50;14.88;;;;;;;12.63;60.57;101250.16;4934007;28;97282;-77
2023/05/19 00:54:27;;;;;;;18.02;16.60;;;;;;;12.67;60.26;101251.78;4949952;28;97367;-78
2023/05/19 00:56:57;;;;;;;20.92;16.08;;;;;;;12.65;60.29;101248.31;4930212;28;98119;-77
2023/05/19 00:59:22;;;;;;;17.15;15.60;;;;;;;12.67;60.35;101257.06;4938433;28;97489;-77
2023/05/19 01:01:48;;;;;;;17.40;15.68;;;;;;;12.75;60.28;101256.84;4931389;28;96872;-78
2023/05/19 01:04:20;;;;;;;17.23;15.63;;;;;;;12.75;59.91;101257.72;4933775;28;97265;-78
2023/05/19 01:06:54;;;;;;;17.55;16.20;;;;;;;12.77;60.37;101252.38;4924953;28;100944;-77
2023/05/19 01:09:21;;;;;;;17.95;15.73;;;;;;;12.79;60.05;101247.94;4950063;28;101135;-78
2023/05/19 01:11:47;;;;;;;17.58;15.75;;;;;;;12.60;60.02;101218.63;4933311;28;97314;-78
2023/05/19 01:14:14;;;;;;;17.73;16.02;;;;;;;12.59;60.31;101219.53;4933713;28;96957;-78
2023/05/19 01:16:43;;;;;;;18.50;16.20;;;;;;;12.76;60.41;101245.41;4949753;28;101451;-78
2023/05/19 01:19:45;;;;;;;17.90;15.50;;;;;;;12.79;60.41;101251.44;4916619;28;101417;-78
2023/05/19 01:22:35;;;;;;;18.75;15.82;;;;;;;12.79;60.30;101243.53;4933210;28;96847;-77
2023/05/19 01:25:15;;;;;;;17.35;15.00;;;;;;;12.79;60.23;101246.16;4950285;28;96895;-77
2023/05/19 01:27:55;;;;;;;17.33;15.75;;;;;;;12.72;60.42;101251.66;4950546;28;98263;-78
2023/05/19 01:30:29;;;;;;;17.42;15.93;;;;;;;12.60;61.09;101248.47;4949917;28;97552;-77
2023/05/19 01:33:05;;;;;;;17.13;15.25;;;;;;;12.69;60.73;101255.25;4930050;28;96874;-77
2023/05/19 01:35:32;;;;;;;17.05;15.52;;;;;;;12.73;60.91;101246.34;4935198;28;96879;-77
2023/05/19 01:37:59;;;;;;;16.73;15.40;;;;;;;12.58;60.65;101226.56;4950557;28;101405;-78
2023/05/19 01:40:26;;;;;;;17.50;15.90;;;;;;;12.59;61.61;101253.75;4928965;28;98295;-78
2023/05/19 01:42:53;;;;;;;16.58;15.07;;;;;;;12.58;60.97;101252.03;4926025;28;97267;-78
2023/05/19 01:45:19;;;;;;;16.88;15.07;;;;;;;12.72;61.35;101254.31;4918051;28;96886;-77
2023/05/19 01:47:50;;;;;;;21.40;17.27;;;;;;;12.53;61.73;101254.78;4932125;28;101096;-77
2023/05/19 01:50:17;;;;;;;18.23;16.35;;;;;;;12.32;62.21;101253.59;4931532;28;99080;-75
2023/05/19 01:52:42;;;;;;;17.35;15.90;;;;;;;12.24;62.32;101261.69;4933309;28;96951;-76
2023/05/19 01:55:08;;;;;;;18.75;17.00;;;;;;;12.33;62.45;101247.44;4914337;28;96890;-75
2023/05/19 01:57:49;;;;;;;16.23;14.90;;;;;;;12.57;61.43;101250.34;4938918;28;98009;-77
2023/05/19 02:00:32;;;;;;;19.15;16.45;;;;;;;12.61;61.60;101255.47;4932391;28;101529;-78
2023/05/19 02:03:06;;;;;;;18.10;16.45;;;;;;;12.55;61.34;101245.09;4949370;28;97177;-77
2023/05/19 02:05:53;;;;;;;18.15;16.45;;;;;;;12.64;60.89;101252.72;4948845;28;96941;-77
2023/05/19 02:08:42;;;;;;;17.42;15.90;;;;;;;12.49;61.86;101252.31;4948647;28;98043;-77
2023/05/19 02:11:21;;;;;;;17.90;16.13;;;;;;;12.52;61.88;101253.06;4931714;28;100508;-77
2023/05/19 02:13:50;;;;;;;18.67;16.95;;;;;;;12.49;61.72;101225.97;4939639;28;97324;-77
2023/05/19 02:16:16;;;;;;;18.75;17.20;;;;;;;12.68;61.04;101248.22;4933406;28;96975;-78
2023/05/19 02:18:45;;;;;;;17.27;15.73;;;;;;;12.69;60.75;101245.56;4931233;28;101569;-79
2023/05/19 02:21:12;;;;;;;17.42;15.85;;;;;;;12.55;60.50;101225.78;4940114;28;97485;-77
2023/05/19 02:23:40;;;;;;;18.48;16.30;;;;;;;12.68;60.90;101250.88;4931708;28;97176;-76
2023/05/19 02:26:07;;;;;;;16.88;15.60;;;;;;;12.72;60.71;101247.25;4949087;28;96899;-77
2023/05/19 02:28:34;;;;;;;17.38;16.17;;;;;;;12.78;60.70;101246.22;4931503;28;101003;-77
2023/05/19 02:31:00;;;;;;;17.23;15.68;;;;;;;12.77;60.25;101245.38;4932129;28;101351;-77
2023/05/19 02:33:29;;;;;;;18.48;16.83;;;;;;;12.81;61.24;101251.41;4939601;28;97820;-81
2023/05/19 02:35:55;;;;;;;18.95;17.38;;;;;;;12.64;61.12;101250.09;4949019;28;98170;-79
2023/05/19 02:38:22;;;;;;;19.27;17.45;;;;;;;12.33;62.06;101239.53;4915771;28;101451;-78
2023/05/19 02:40:48;;;;;;;18.17;16.70;;;;;;;12.62;61.07;101240.50;4953457;28;98001;-77
2023/05/19 02:43:13;;;;;;;16.77;15.38;;;;;;;12.62;60.98;101235.25;4935561;28;96781;-78
2023/05/19 02:45:39;;;;;;;19.25;17.30;;;;;;;12.65;61.05;101246.56;4932271;28;96953;-77
2023/05/19 02:48:05;;;;;;;18.98;17.08;;;;;;;12.73;61.16;101237.59;4979020;28;101509;-79
2023/05/19 02:50:30;;;;;;;18.48;16.73;;;;;;;12.54;61.89;101237.25;4938108;28;100896;-80
2023/05/19 02:52:56;;;;;;;18.75;17.05;;;;;;;12.57;61.47;101229.25;4938962;28;96898;-78
2023/05/19 02:55:21;;;;;;;19.45;17.10;;;;;;;12.61;61.59;101228.25;4939022;28;96929;-77
2023/05/19 02:57:47;;;;;;;18.33;16.60;;;;;;;12.60;61.25;101222.13;4953649;28;101158;-79
2023/05/19 03:00:13;;;;;;;19.30;17.38;;;;;;;12.51;61.52;101225.03;4938245;28;101292;-76
2023/05/19 03:02:40;;;;;;;18.70;17.10;;;;;;;12.51;61.41;101225.03;4956705;28;97319;-75
2023/05/19 03:05:07;;;;;;;18.08;16.35;;;;;;;12.63;61.27;101235.22;4939104;28;97037;-77
2023/05/19 03:07:32;;;;;;;19.73;17.35;;;;;;;12.65;61.03;101241.31;4938501;28;100845;-78
2023/05/19 03:09:58;;;;;;;19.17;17.15;;;;;;;12.28;61.68;101216.91;4953907;28;101172;-77
2023/05/19 03:12:23;;;;;;;20.40;16.63;;;;;;;12.61;61.20;101246.69;4954122;28;97106;-77
2023/05/19 03:14:49;;;;;;;18.98;17.23;;;;;;;12.57;61.02;101238.03;4953632;28;97345;-77
2023/05/19 03:17:15;;;;;;;18.67;16.98;;;;;;;12.64;60.62;101239.56;4954629;28;100919;-77
2023/05/19 03:19:40;;;;;;;17.77;16.35;;;;;;;12.72;60.62;101244.63;4953720;28;97958;-78
2023/05/19 03:22:06;;;;;;;17.48;16.17;;;;;;;12.58;60.84;101234.47;4954924;28;97034;-77
2023/05/19 03:24:33;;;;;;;18.65;16.92;;;;;;;12.59;60.83;101244.09;4954183;28;97276;-77
2023/05/19 03:26:58;;;;;;;19.05;17.50;;;;;;;12.67;60.66;101243.88;4959958;28;98073;-77
2023/05/19 03:29:24;;;;;;;18.35;16.85;;;;;;;12.49;62.02;101236.50;4933783;28;99996;-78
2023/05/19 03:31:50;;;;;;;19.25;17.27;;;;;;;12.61;61.11;101247.56;4967254;28;97519;-77
2023/05/19 03:34:17;;;;;;;18.77;17.27;;;;;;;12.69;60.52;101232.41;4938413;28;97228;-75
2023/05/19 03:36:43;;;;;;;18.65;16.77;;;;;;;12.73;60.45;101224.41;4936693;28;101347;-78
2023/05/19 03:39:13;;;;;;;17.33;15.98;;;;;;;12.56;60.82;101235.41;4934901;28;101841;-78
2023/05/19 03:41:39;;;;;;;19.00;17.00;;;;;;;12.62;60.93;101229.97;4948056;28;97165;-77
2023/05/19 03:44:05;;;;;;;17.67;15.88;;;;;;;12.67;60.11;101214.91;4954084;28;97294;-77
2023/05/19 03:46:30;;;;;;;16.80;15.48;;;;;;;12.85;60.24;101227.53;4950773;28;100945;-80
2023/05/19 03:49:15;;;;;;;17.25;15.60;;;;;;;12.75;60.40;101227.88;4926253;28;100318;-77
2023/05/19 03:51:56;;;;;;;19.05;17.25;;;;;;;12.81;60.37;101231.19;4933141;28;96914;-78
2023/05/19 03:54:31;;;;;;;18.48;16.52;;;;;;;12.68;60.60;101225.41;4967619;28;97389;-80
2023/05/19 03:56:57;;;;;;;18.10;16.42;;;;;;;12.56;60.77;101212.56;4934373;28;101526;-78
2023/05/19 03:59:23;;;;;;;19.27;17.52;;;;;;;12.75;60.84;101231.38;4933704;28;101283;-77
2023/05/19 04:01:49;;;;;;;19.02;17.40;;;;;;;12.74;60.99;101229.66;4917421;28;96946;-77
2023/05/19 04:04:15;;;;;;;18.25;16.52;;;;;;;12.69;61.15;101234.19;4934521;28;96880;-77
2023/05/19 04:06:40;;;;;;;19.85;18.35;;;;;;;12.82;60.85;101226.78;4917709;28;101269;-78
2023/05/19 04:09:13;;;;;;;20.33;18.00;;;;;;;12.69;61.68;101232.41;4933317;28;102420;-77
2023/05/19 04:11:39;;;;;;;18.23;16.73;;;;;;;12.70;61.47;101233.25;4949321;28;97046;-77
2023/05/19 04:14:05;;;;;;;18.98;17.27;;;;;;;12.98;60.31;101232.47;4950447;28;97279;-77
2023/05/19 04:16:31;;;;;;;19.20;17.45;;;;;;;12.42;61.58;101222.63;4950291;28;101467;-76
2023/05/19 04:18:57;;;;;;;19.38;17.45;;;;;;;12.88;60.76;101240.63;4934131;28;101044;-77
2023/05/19 04:21:23;;;;;;;18.95;17.25;;;;;;;13.10;60.30;101219.78;4934267;28;97299;-75
2023/05/19 04:23:49;;;;;;;19.52;17.73;;;;;;;13.27;59.68;101239.53;4917221;28;97247;-75
2023/05/19 04:26:15;;;;;;;18.25;16.83;;;;;;;13.27;59.84;101248.31;4943290;28;97410;-77
2023/05/19 04:28:43;;;;;;;19.83;18.05;;;;;;;13.49;59.40;101240.56;4939698;28;101381;-76
2023/05/19 04:31:11;;;;;;;19.52;17.55;;;;;;;13.41;59.34;101239.09;4919291;28;97206;-75
2023/05/19 04:33:37;;;;;;;18.65;17.15;;;;;;;13.23;59.72;101240.50;4937188;28;97131;-75
2023/05/19 04:36:09;;;;;;;17.95;16.55;;;;;;;13.47;59.47;101234.50;4932841;28;99578;-76
2023/05/19 04:38:38;;;;;;;19.20;17.70;;;;;;;13.63;58.59;101234.88;4948277;28;101939;-75
2023/05/19 04:41:09;;;;;;;22.02;18.08;;;;;;;13.08;59.48;101218.97;4930813;28;97518;-75
2023/05/19 04:43:34;;;;;;;18.83;17.50;;;;;;;13.16;60.21;101241.59;4932537;28;97242;-79
2023/05/19 04:46:00;;;;;;;17.73;16.15;;;;;;;12.84;60.16;101241.63;4933553;28;101153;-75
2023/05/19 04:48:29;;;;;;;19.15;17.60;;;;;;;12.78;60.59;101238.31;4947727;28;100891;-76
2023/05/19 04:50:55;;;;;;;18.33;16.65;;;;;;;12.98;59.99;101243.03;4949796;28;97182;-75
2023/05/19 04:53:21;;;;;;;18.70;16.85;;;;;;;13.38;59.03;101242.72;4953024;28;96933;-76
2023/05/19 04:55:46;;;;;;;17.85;16.27;;;;;;;12.84;60.03;101223.19;4931683;28;101661;-76
2023/05/19 04:58:13;;;;;;;16.70;15.48;;;;;;;13.05;59.52;101249.81;4952688;28;99812;-80
2023/05/19 05:00:39;;;;;;;18.60;16.67;;;;;;;12.51;61.34;101255.75;4944835;28;98228;-74
2023/05/19 05:03:06;;;;;;;18.20;16.90;;;;;;;12.77;61.07;101247.13;4932661;28;96919;-75
2023/05/19 05:05:33;;;;;;;17.92;16.52;;;;;;;12.86;60.62;101247.72;4950598;28;101445;-76
2023/05/19 05:07:59;;;;;;;17.58;15.77;;;;;;;13.21;60.46;101250.25;4947055;28;101275;-77
2023/05/19 05:10:28;;;;;;;18.45;16.90;;;;;;;12.89;59.94;101237.09;4949464;28;97168;-77
2023/05/19 05:12:54;;;;;;;17.92;16.40;;;;;;;13.34;59.72;101257.75;4948357;28;97509;-77
2023/05/19 05:15:20;;;;;;;18.48;16.73;;;;;;;12.93;60.27;101237.00;4966585;28;97965;-76
2023/05/19 05:17:48;;;;;;;17.00;15.48;;;;;;;12.53;61.40;101248.66;4958137;28;101037;-83
2023/05/19 05:20:15;;;;;;;17.30;16.00;;;;;;;12.73;61.20;101251.63;4932927;28;96830;-80
2023/05/19 05:22:41;;;;;;;19.20;17.50;;;;;;;12.80;60.23;101241.75;4950814;28;97483;-80
2023/05/19 05:25:08;;;;;;;17.98;16.58;;;;;;;13.02;60.40;101265.72;4953280;28;101616;-80
2023/05/19 05:27:35;;;;;;;17.10;15.45;;;;;;;13.06;60.11;101259.44;4936675;28;101411;-81
2023/05/19 05:30:02;;;;;;;17.92;16.30;;;;;;;13.03;60.23;101257.78;4954027;28;97122;-81
2023/05/19 05:32:28;;;;;;;17.65;16.38;;;;;;;12.74;60.40;101242.81;4969846;28;96890;-74
2023/05/19 05:34:54;;;;;;;17.77;16.20;;;;;;;12.73;60.67;101245.47;4951765;28;100253;-75
2023/05/19 05:37:19;;;;;;;16.60;15.38;;;;;;;12.98;60.22;101250.94;4961868;28;100193;-75
2023/05/19 05:39:45;;;;;;;16.98;15.57;;;;;;;13.09;59.99;101254.13;4932018;28;97413;-75
2023/05/19 05:42:11;;;;;;;17.73;16.02;;;;;;;12.78;60.63;101256.75;4944212;28;97020;-75
2023/05/19 05:44:38;;;;;;;18.83;16.80;;;;;;;12.82;60.27;101251.34;4945885;28;100108;-75
2023/05/19 05:47:05;;;;;;;17.73;16.35;;;;;;;12.80;60.74;101242.66;4935640;28;101523;-75
2023/05/19 05:49:30;;;;;;;18.13;16.73;;;;;;;12.69;60.70;101256.13;4934612;28;97119;-75
2023/05/19 05:51:57;;;;;;;18.15;16.85;;;;;;;12.48;61.61;101258.44;4921781;28;97428;-75
2023/05/19 05:54:23;;;;;;;17.27;15.82;;;;;;;12.72;60.65;101235.88;4932051;28;101837;-75
2023/05/19 05:56:50;;;;;;;17.17;15.77;;;;;;;12.38;61.81;101256.06;4932485;28;101029;-75
2023/05/19 05:59:16;;;;;;;18.42;16.88;;;;;;;12.29;62.43;101263.38;4932953;28;97514;-75
2023/05/19 06:01:42;;;;;;;16.92;15.60;;;;;;;12.60;61.81;101259.00;4913461;28;96933;-75
2023/05/19 06:04:09;;;;;;;17.55;16.23;;;;;;;12.70;61.68;101251.69;4930862;28;101274;-75
2023/05/19 06:06:36;;;;;;;21.98;17.92;;;;;;;12.96;61.19;101265.91;4931493;28;101314;-76
2023/05/19 06:09:03;;;;;;;17.60;16.20;;;;;;;12.54;62.37;101250.41;4932564;28;96875;-76
2023/05/19 06:11:29;;;;;;;19.00;17.17;;;;;;;12.90;61.59;101249.34;4915962;28;97146;-76
2023/05/19 06:13:56;;;;;;;18.05;16.40;;;;;;;13.08;60.95;101257.63;4930153;28;101864;-76
2023/05/19 06:16:42;;;;;;;17.98;16.45;;;;;;;13.04;61.71;101267.41;4933015;28;97703;-76
2023/05/19 06:19:08;;;;;;;19.20;17.27;;;;;;;12.82;62.06;101268.94;4951734;28;97329;-77
2023/05/19 06:21:34;;;;;;;17.95;16.50;;;;;;;12.56;62.69;101270.50;4951962;28;96942;-76
2023/05/19 06:23:59;;;;;;;18.17;16.77;;;;;;;12.64;62.82;101273.81;4950877;28;98059;-76
2023/05/19 06:26:25;;;;;;;18.30;16.90;;;;;;;12.66;62.93;101257.97;4919422;28;101534;-76
2023/05/19 06:28:51;;;;;;;19.00;17.45;;;;;;;12.73;62.86;101277.94;4933872;28;97529;-76
2023/05/19 06:31:16;;;;;;;19.20;16.77;;;;;;;12.88;63.20;101279.28;4935304;28;97075;-76
2023/05/19 06:33:50;;;;;;;18.70;17.00;;;;;;;12.73;63.17;101271.84;4921339;28;101309;-76
2023/05/19 06:36:15;;;;;;;21.10;19.10;;;;;;;12.83;63.55;101278.59;4942996;28;101206;-76
2023/05/19 06:38:42;;;;;;;19.98;18.27;;;;;;;12.75;63.50;101280.56;4918771;28;97283;-76
2023/05/19 06:41:09;;;;;;;19.10;17.52;;;;;;;12.91;62.85;101279.19;4917041;28;97082;-76
2023/05/19 06:43:35;;;;;;;19.67;18.25;;;;;;;12.99;63.16;101287.75;4930735;28;101534;-76
2023/05/19 06:46:03;;;;;;;18.20;16.80;;;;;;;13.04;63.17;101287.66;4955718;28;98751;-76
2023/05/19 06:48:30;;;;;;;18.17;16.77;;;;;;;12.80;63.55;101282.16;4952768;28;97283;-76
2023/05/19 06:50:57;;;;;;;19.80;18.13;;;;;;;12.46;65.06;101271.69;4935101;28;97475;-76
2023/05/19 06:53:23;;;;;;;19.70;17.98;;;;;;;12.50;65.17;101275.94;4934406;28;101190;-76
2023/05/19 06:55:51;;;;;;;19.17;17.58;;;;;;;12.67;64.90;101283.41;4933628;28;101178;-75
2023/05/19 06:58:19;;;;;;;20.65;18.73;;;;;;;12.56;65.22;101270.50;4951468;28;96823;-75
2023/05/19 07:00:45;;;;;;;19.33;17.58;;;;;;;12.64;64.89;101280.84;4951756;28;96911;-75
2023/05/19 07:03:14;;;;;;;19.38;17.67;;;;;;;12.74;64.76;101289.34;4934737;28;101361;-75
2023/05/19 07:05:39;;;;;;;19.80;17.75;;;;;;;12.58;65.03;101281.03;4951183;28;97318;-76
2023/05/19 07:08:07;;;;;;;19.88;18.30;;;;;;;12.66;65.49;101271.16;4950923;28;96695;-74
2023/05/19 07:10:34;;;;;;;17.88;16.23;;;;;;;13.11;63.86;101278.63;4935912;28;97131;-74
2023/05/19 07:13:00;;;;;;;19.83;18.00;;;;;;;13.04;64.32;101292.91;4918008;28;101830;-74
2023/05/19 07:15:29;;;;;;;18.98;17.35;;;;;;;12.71;63.95;101257.81;4919573;28;100938;-74
2023/05/19 07:17:55;;;;;;;19.23;17.38;;;;;;;12.51;64.95;101267.16;4917631;28;97141;-73
2023/05/19 07:20:20;;;;;;;20.30;18.52;;;;;;;12.92;64.25;101296.75;4935305;28;97004;-73
2023/05/19 07:22:46;;;;;;;18.27;16.75;;;;;;;12.95;64.31;101301.09;4926006;28;101132;-75
2023/05/19 07:25:15;;;;;;;19.67;17.63;;;;;;;13.10;64.06;101290.97;4934527;28;100931;-75
2023/05/19 07:27:40;;;;;;;19.00;17.20;;;;;;;13.28;63.39;101294.84;4929562;28;97942;-76
2023/05/19 07:30:06;;;;;;;17.95;16.52;;;;;;;13.11;63.40;101299.72;4913678;28;98043;-74
2023/05/19 07:32:32;;;;;;;19.55;16.38;;;;;;;12.78;64.04;101293.66;4951988;28;97969;-77
2023/05/19 07:34:57;;;;;;;18.60;16.90;;;;;;;13.01;63.15;101287.72;4932884;28;97405;-76
2023/05/19 07:37:23;;;;;;;17.98;16.63;;;;;;;12.94;63.86;101302.84;4930332;28;97065;-77
2023/05/19 07:39:49;;;;;;;19.65;17.40;;;;;;;12.93;64.04;101290.56;4932371;28;97176;-76
2023/05/19 07:42:14;;;;;;;19.42;17.20;;;;;;;12.99;63.49;101300.94;4950463;28;97538;-76
2023/05/19 07:44:40;;;;;;;18.30;16.70;;;;;;;12.96;63.54;101269.41;4918424;28;101162;-77
2023/05/19 07:47:05;;;;;;;21.30;17.80;;;;;;;13.14;63.60;101297.00;4943490;28;96833;-76
2023/05/19 07:49:31;;;;;;;19.65;18.00;;;;;;;12.79;64.51;101304.13;4937041;28;97286;-76
2023/05/19 07:51:56;;;;;;;17.50;16.13;;;;;;;13.00;64.11;101288.63;4953607;28;97934;-77
2023/05/19 07:54:22;;;;;;;17.70;16.10;;;;;;;13.30;63.40;101294.81;4927123;28;99199;-77
2023/05/19 07:56:47;;;;;;;18.13;16.77;;;;;;;13.16;63.77;101302.25;4912139;28;98166;-77
2023/05/19 07:59:14;;;;;;;18.27;16.33;;;;;;;13.15;63.49;101296.09;4945250;28;97337;-77
2023/05/19 08:01:39;;;;;;;16.80;15.23;;;;;;;13.02;64.38;101297.34;4934279;28;101614;-77
2023/05/19 08:04:05;;;;;;;18.63;17.00;;;;;;;12.96;64.53;101311.56;4908906;28;100397;-77
2023/05/19 08:06:30;;;;;;;17.65;16.33;;;;;;;13.10;63.87;101292.72;4928247;28;97647;-77
2023/05/19 08:08:56;;;;;;;17.50;15.90;;;;;;;13.19;63.69;101295.09;4944785;28;98251;-77
2023/05/19 08:11:21;;;;;;;17.80;16.40;;;;;;;13.29;63.27;101288.69;4928357;28;101471;-77
2023/05/19 08:13:48;;;;;;;17.27;15.77;;;;;;;13.30;63.42;101287.78;4912321;28;101513;-76
2023/05/19 08:16:16;;;;;;;17.15;15.95;;;;;;;13.46;62.50;101301.34;4925175;28;98045;-77
2023/05/19 08:18:42;;;;;;;17.55;15.73;;;;;;;13.85;62.02;101297.53;4928125;28;98701;-78
2023/05/19 08:21:07;;;;;;;17.83;16.33;;;;;;;13.63;62.22;101298.19;4910475;28;101345;-77
2023/05/19 08:23:33;;;;;;;18.55;17.15;;;;;;;13.71;62.12;101290.91;4927363;28;101458;-77
2023/05/19 08:25:59;;;;;;;16.40;15.20;;;;;;;13.88;61.98;101294.78;4917683;28;98000;-78
2023/05/19 08:28:25;;;;;;;17.45;15.95;;;;;;;14.12;60.82;101290.47;4911998;28;97457;-77
2023/05/19 08:30:53;;;;;;;16.20;14.90;;;;;;;14.31;60.38;101282.78;4942557;28;100140;-77
2023/05/19 08:33:20;;;;;;;17.52;16.10;;;;;;;14.37;59.90;101280.81;4943633;28;97963;-77
2023/05/19 08:35:47;;;;;;;16.98;15.77;;;;;;;14.83;59.25;101284.47;4941359;28;98085;-78
2023/05/19 08:38:12;;;;;;;17.05;15.75;;;;;;;14.87;58.32;101278.16;4927205;28;98305;-77
2023/05/19 08:40:42;;;;;;;16.38;15.25;;;;;;;15.07;58.00;101284.50;4926808;28;97927;-77
2023/05/19 08:43:08;;;;;;;17.20;15.48;;;;;;;14.74;58.03;101253.09;4917135;28;101100;-77
2023/05/19 08:45:33;;;;;;;17.13;15.70;;;;;;;14.52;58.28;101283.88;4911121;28;98054;-78
2023/05/19 08:47:59;;;;;;;18.63;17.30;;;;;;;14.33;58.60;101280.94;4927215;28;97980;-75
2023/05/19 08:50:29;;;;;;;16.65;15.35;;;;;;;14.33;58.57;101276.53;4934804;28;101667;-75
2023/05/19 08:53:12;;;;;;;16.93;15.67;;;;;;;13.97;59.19;101292.69;4943322;28;97998;-75
2023/05/19 08:56:09;;;;;;;17.77;16.38;;;;;;;14.26;58.66;101285.59;4925724;28;97934;-74
2023/05/19 08:58:39;;;;;;;17.35;15.93;;;;;;;14.33;58.70;101286.22;4942671;28;97802;-75
2023/05/19 09:01:06;;;;;;;17.40;15.95;;;;;;;14.42;58.64;101281.50;4918611;28;101218;-75
2023/05/19 09:03:36;;;;;;;17.73;16.45;;;;;;;14.70;58.13;101284.06;4910041;28;101448;-75
2023/05/19 09:06:07;;;;;;;19.52;17.70;;;;;;;14.93;57.44;101274.44;4924421;28;97961;-75
2023/05/19 09:08:33;;;;;;;16.42;15.32;;;;;;;15.42;56.02;101276.97;4926656;28;98284;-75
2023/05/19 09:10:59;;;;;;;16.52;15.27;;;;;;;15.80;54.88;101279.00;4925400;28;102221;-76
2023/05/19 09:13:25;;;;;;;16.50;15.40;;;;;;;15.80;54.66;101254.34;4927641;28;102413;-78
2023/05/19 09:15:52;;;;;;;17.92;16.25;;;;;;;16.33;54.09;101271.53;4924633;28;98133;-76
2023/05/19 09:18:17;;;;;;;17.13;15.80;;;;;;;16.19;55.05;101274.78;4927362;28;97962;-74
2023/05/19 09:20:45;;;;;;;17.63;16.25;;;;;;;16.59;53.66;101271.28;4945131;28;98552;-77
2023/05/19 09:23:13;;;;;;;18.13;16.52;;;;;;;16.40;53.06;101252.66;4912506;28;101772;-76
2023/05/19 09:25:49;;;;;;;17.80;16.15;;;;;;;16.70;52.53;101271.66;4925963;28;98142;-76
2023/05/19 09:28:35;;;;;;;17.13;15.57;;;;;;;16.43;53.63;101271.06;4942154;28;97438;-76
2023/05/19 09:31:03;;;;;;;17.55;15.90;;;;;;;17.13;52.00;101263.56;4909600;28;101033;-75
2023/05/19 09:33:29;;;;;;;17.90;16.25;;;;;;;17.76;50.67;101260.56;4924165;28;101300;-76
2023/05/19 09:35:55;;;;;;;17.58;16.08;;;;;;;16.89;51.48;101253.16;4931797;28;97911;-76
2023/05/19 09:38:25;;;;;;;17.52;16.25;;;;;;;17.85;50.51;101247.72;4944994;28;98054;-76
2023/05/19 09:41:00;;;;;;;17.75;16.40;;;;;;;17.90;50.42;101258.13;4926784;28;100054;-76
2023/05/19 09:43:30;;;;;;;16.92;15.68;;;;;;;17.18;51.30;101253.59;4942686;28;98006;-76
2023/05/19 09:46:02;;;;;;;16.92;15.63;;;;;;;16.87;52.10;101262.97;4925353;28;97972;-76
2023/05/19 09:48:27;;;;;;;16.42;15.32;;;;;;;17.02;52.00;101250.81;4942314;28;97917;-76
2023/05/19 09:50:53;;;;;;;17.70;16.30;;;;;;;16.33;52.50;101232.66;4944482;28;101887;-76
2023/05/19 09:53:20;;;;;;;17.00;15.80;;;;;;;16.20;53.84;101250.88;4928000;28;99513;-75
2023/05/19 09:55:47;;;;;;;16.85;15.52;;;;;;;16.39;53.18;101244.78;4927952;28;98239;-76
2023/05/19 09:58:17;;;;;;;17.33;15.93;;;;;;;16.46;53.39;101247.09;4946856;28;97937;-76
2023/05/19 10:00:44;;;;;;;18.53;17.03;;;;;;;16.97;52.49;101248.34;4914119;28;102384;-77
2023/05/19 10:03:10;;;;;;;17.88;16.58;;;;;;;16.88;52.12;101232.88;4943790;28;98107;-76
2023/05/19 10:05:36;;;;;;;16.52;15.30;;;;;;;16.97;52.36;101236.91;4919450;28;97416;-76
2023/05/19 10:08:05;;;;;;;16.75;15.27;;;;;;;16.66;52.56;101251.50;4912934;28;97637;-76
2023/05/19 10:10:32;;;;;;;16.65;15.45;;;;;;;16.34;53.37;101223.78;4912964;28;102694;-78
2023/05/19 10:12:58;;;;;;;17.80;16.35;;;;;;;15.95;54.11;101231.66;4928078;28;99081;-76
2023/05/19 10:15:24;;;;;;;16.35;15.25;;;;;;;15.82;54.41;101218.94;4935092;28;98071;-79
2023/05/19 10:17:50;;;;;;;17.40;16.15;;;;;;;15.93;54.53;101199.06;4928240;28;98021;-78
2023/05/19 10:20:16;;;;;;;19.50;17.77;;;;;;;16.00;54.34;101229.69;4929424;28;101846;-78
2023/05/19 10:22:44;;;;;;;18.33;16.88;;;;;;;15.49;55.71;101214.97;4929404;28;101706;-78
2023/05/19 10:25:13;;;;;;;19.02;17.35;;;;;;;15.71;55.54;101225.59;4934667;28;97548;-78
2023/05/19 10:27:44;;;;;;;19.48;16.75;;;;;;;15.53;55.89;101225.38;4946252;28;97577;-78
2023/05/19 10:30:13;;;;;;;18.50;17.02;;;;;;;15.32;57.05;101234.16;4954673;28;98249;-79
2023/05/19 10:32:40;;;;;;;19.77;18.05;;;;;;;15.45;56.27;101224.84;4951727;28;100879;-78
2023/05/19 10:35:09;;;;;;;18.75;17.35;;;;;;;15.01;56.86;101231.84;4935041;28;96852;-79
2023/05/19 10:38:16;;;;;;;20.23;18.25;;;;;;;15.04;57.10;101229.97;4965119;28;97242;-80
2023/05/19 10:41:10;;;;;;;20.52;18.63;;;;;;;15.13;57.07;101234.03;4943959;28;100876;-80
2023/05/19 10:43:43;;;;;;;20.80;18.77;;;;;;;14.77;58.05;101234.47;4954662;28;101119;-79
2023/05/19 10:46:09;;;;;;;20.13;18.13;;;;;;;14.70;58.58;101231.22;4948566;28;96897;-79
2023/05/19 10:48:37;;;;;;;21.13;19.00;;;;;;;14.84;58.12;101214.00;4953463;28;97204;-79
2023/05/19 10:51:03;;;;;;;21.45;19.42;;;;;;;15.04;57.88;101242.28;4952615;28;101497;-78
2023/05/19 10:53:30;;;;;;;19.80;18.20;;;;;;;14.98;57.73;101246.06;4935550;28;100930;-79
2023/05/19 10:55:57;;;;;;;20.25;18.35;;;;;;;15.20;57.29;101237.28;4951025;28;97562;-80
2023/05/19 10:58:45;;;;;;;24.77;18.02;;;;;;;15.03;57.83;101251.16;4952651;28;97253;-79
2023/05/19 11:01:15;;;;;;;19.90;17.88;;;;;;;15.37;57.38;101248.06;4953327;28;100711;-80
2023/05/19 11:03:48;;;;;;;20.25;18.23;;;;;;;15.16;57.97;101247.13;4970475;28;98447;-78
2023/05/19 11:06:24;;;;;;;20.63;18.85;;;;;;;15.06;58.56;101238.66;4967771;28;97412;-80
2023/05/19 11:08:57;;;;;;;19.83;17.77;;;;;;;14.90;59.22;101234.91;4934775;28;96824;-79
2023/05/19 11:11:23;;;;;;;20.42;18.80;;;;;;;14.98;59.23;101224.91;4968652;28;99718;-79